Time;durP1;ratioP1;P1;durP2;ratioP2;P2;SDS_P1;SDS_P2;PMS_P1;PMS_P2;Temp;Humidity;BMP_temperature;BMP_pressure;BME280_temperature;BME280_humidity;BME280_pressure;Samples;Min_cycle;Max_cycle;Signal;HPM_P1;HPM_P2
2021/09/05 00:01:32;;;;;;;9.07;7.13;;;;;;;16.57;75.99;97108.94;4984640;28;20474;-58
2021/09/05 00:04:03;;;;;;;7.75;6.47;;;;;;;16.68;76.13;97114.50;4986123;28;20128;-73
2021/09/05 00:06:30;;;;;;;8.52;6.93;;;;;;;16.68;77.21;97131.28;4986117;28;20050;-72
2021/09/05 00:08:57;;;;;;;7.63;6.60;;;;;;;16.71;77.01;97141.66;4986225;28;20453;-69
2021/09/05 00:11:24;;;;;;;8.20;6.10;;;;;;;16.46;76.51;97092.25;4986600;28;20054;-69
2021/09/05 00:13:50;;;;;;;7.45;5.90;;;;;;;16.86;76.31;97137.56;4984335;28;20198;-71
2021/09/05 00:16:17;;;;;;;13.20;8.18;;;;;;;16.47;77.31;97088.22;4985987;28;20232;-59
2021/09/05 00:18:44;;;;;;;9.93;6.85;;;;;;;16.74;78.93;97138.03;4984731;28;20077;-59
2021/09/05 00:21:11;;;;;;;7.70;6.90;;;;;;;16.87;78.98;97139.16;4986129;28;20054;-59
2021/09/05 00:23:38;;;;;;;8.82;6.88;;;;;;;16.74;79.91;97140.84;4985856;28;20057;-71
2021/09/05 00:26:05;;;;;;;9.45;6.50;;;;;;;16.72;78.78;97144.06;4985724;28;20133;-59
2021/09/05 00:28:32;;;;;;;7.30;6.32;;;;;;;16.52;78.66;97110.19;4985906;28;20050;-72
2021/09/05 00:30:58;;;;;;;8.45;6.70;;;;;;;16.45;78.58;97096.22;4985655;28;20549;-72
2021/09/05 00:33:25;;;;;;;7.80;6.53;;;;;;;16.91;78.19;97146.34;4985227;28;20054;-72
2021/09/05 00:35:52;;;;;;;7.78;6.57;;;;;;;17.01;77.19;97139.09;4985330;28;20046;-59
2021/09/05 00:38:18;;;;;;;7.40;5.90;;;;;;;16.91;77.24;97134.34;4985646;28;20050;-72
2021/09/05 00:40:45;;;;;;;8.07;7.28;;;;;;;16.98;77.30;97137.06;4983802;28;20565;-60
2021/09/05 00:43:12;;;;;;;11.52;7.00;;;;;;;16.82;77.27;97114.41;4985871;28;20051;-72
2021/09/05 00:45:39;;;;;;;9.30;6.43;;;;;;;16.89;77.32;97131.94;4984396;28;20058;-72
2021/09/05 00:48:06;;;;;;;10.35;6.35;;;;;;;17.05;77.32;97143.44;4985352;28;20432;-60
2021/09/05 00:50:33;;;;;;;10.25;6.47;;;;;;;16.56;77.17;97057.84;4985232;28;20054;-59
2021/09/05 00:52:59;;;;;;;8.15;6.25;;;;;;;16.84;76.84;97100.78;4985173;28;20062;-73
2021/09/05 00:55:26;;;;;;;8.38;6.13;;;;;;;16.88;76.73;97119.19;4983683;28;20064;-60
2021/09/05 00:57:53;;;;;;;8.75;6.78;;;;;;;16.87;76.49;97111.16;4984992;28;20397;-72
2021/09/05 01:00:20;;;;;;;9.15;6.05;;;;;;;17.06;77.17;97147.03;4985225;28;20060;-72
2021/09/05 01:02:47;;;;;;;8.25;6.97;;;;;;;17.01;77.19;97139.09;4984391;28;20100;-59
2021/09/05 01:05:15;;;;;;;10.05;7.15;;;;;;;16.79;77.77;97132.81;4984406;28;20611;-72
2021/09/05 01:07:42;;;;;;;8.57;6.28;;;;;;;16.85;77.91;97147.19;4983643;28;20065;-59
2021/09/05 01:10:11;;;;;;;8.50;6.40;;;;;;;16.88;78.22;97146.34;4985052;28;20149;-71
2021/09/05 01:12:38;;;;;;;11.93;6.88;;;;;;;16.50;78.19;97093.00;4984537;28;20061;-70
2021/09/05 01:15:06;;;;;;;15.30;7.03;;;;;;;14.48;77.57;96779.88;4982910;28;20062;-59
2021/09/05 01:17:39;;;;;;;10.55;6.38;;;;;;;16.91;77.25;97151.13;4985212;28;20085;-72
2021/09/05 01:20:08;;;;;;;7.68;6.22;;;;;;;16.80;77.50;97145.59;4985518;28;20050;-59
2021/09/05 01:22:36;;;;;;;10.48;6.57;;;;;;;16.78;77.60;97148.00;4983343;28;20421;-71
2021/09/05 01:25:03;;;;;;;8.40;6.05;;;;;;;16.72;78.21;97148.84;4984615;28;20072;-59
2021/09/05 01:27:31;;;;;;;9.68;6.07;;;;;;;16.61;78.26;97132.91;4984970;28;20129;-71
2021/09/05 01:29:57;;;;;;;6.88;6.22;;;;;;;16.75;77.84;97148.03;4984178;28;20054;-59
2021/09/05 01:32:24;;;;;;;9.02;6.15;;;;;;;16.75;78.09;97153.63;4984627;28;20574;-71
2021/09/05 01:34:51;;;;;;;7.63;6.05;;;;;;;16.80;77.65;97150.41;4984204;28;20449;-71
2021/09/05 01:37:18;;;;;;;10.43;5.93;;;;;;;16.70;78.49;97151.25;4983069;28;20062;-71
2021/09/05 01:39:44;;;;;;;8.45;6.32;;;;;;;16.66;78.74;97150.47;4983367;28;20061;-60
2021/09/05 01:42:11;;;;;;;6.78;6.13;;;;;;;16.73;78.84;97156.00;4984587;28;20054;-72
2021/09/05 01:44:38;;;;;;;7.03;6.30;;;;;;;16.66;78.97;97156.06;4982832;28;20054;-62
2021/09/05 01:47:05;;;;;;;8.57;5.97;;;;;;;16.42;78.20;97091.41;4984660;28;20050;-59
2021/09/05 01:49:31;;;;;;;10.68;6.70;;;;;;;16.76;78.67;97146.81;4984608;28;20457;-72
2021/09/05 01:51:58;;;;;;;8.57;6.97;;;;;;;16.73;78.96;97139.22;4982810;28;20139;-61
2021/09/05 01:54:25;;;;;;;9.23;6.45;;;;;;;16.24;78.71;97062.75;4982987;28;20062;-72
2021/09/05 01:56:51;;;;;;;8.40;6.13;;;;;;;16.50;79.37;97114.59;4984360;28;20053;-71
2021/09/05 01:59:18;;;;;;;7.32;5.90;;;;;;;16.69;79.72;97138.47;4983875;28;20068;-72
2021/09/05 02:01:45;;;;;;;11.48;6.35;;;;;;;16.44;80.21;97103.03;4983825;28;20058;-72
2021/09/05 02:04:12;;;;;;;10.48;6.40;;;;;;;16.68;79.85;97134.88;4984076;28;20525;-59
2021/09/05 02:06:39;;;;;;;7.07;6.25;;;;;;;16.37;80.28;97094.66;4982822;28;20418;-59
2021/09/05 02:09:06;;;;;;;8.13;6.50;;;;;;;16.46;82.35;97136.97;4984168;28;20081;-72
2021/09/05 02:11:32;;;;;;;9.52;6.13;;;;;;;16.55;82.18;97144.91;4984202;28;20055;-61
2021/09/05 02:13:59;;;;;;;9.23;6.75;;;;;;;16.43;82.64;97148.94;4984320;28;20101;-66
2021/09/05 02:16:26;;;;;;;6.65;5.90;;;;;;;15.82;84.04;97082.47;4982677;28;20056;-72
2021/09/05 02:18:53;;;;;;;8.10;6.15;;;;;;;16.08;82.56;97090.38;4982633;28;20129;-61
2021/09/05 02:21:19;;;;;;;8.65;6.38;;;;;;;15.88;82.04;97075.28;4983728;28;20521;-71
2021/09/05 02:23:46;;;;;;;8.45;6.30;;;;;;;15.92;83.00;97095.63;4982588;28;20046;-60
2021/09/05 02:26:13;;;;;;;15.02;6.55;;;;;;;16.13;83.88;97140.28;4984180;28;20050;-72
2021/09/05 02:28:39;;;;;;;7.40;6.38;;;;;;;15.77;83.79;97076.53;4982509;28;20065;-72
2021/09/05 02:31:06;;;;;;;9.73;6.28;;;;;;;16.03;83.94;97129.91;4984263;28;20534;-59
2021/09/05 02:33:33;;;;;;;9.30;6.85;;;;;;;16.04;84.37;97131.53;4983843;28;20552;-72
2021/09/05 02:36:00;;;;;;;7.15;5.93;;;;;;;16.02;85.68;97145.09;4983740;28;20054;-68
2021/09/05 02:38:26;;;;;;;13.55;7.03;;;;;;;15.93;85.24;97141.91;4983647;28;20050;-59
2021/09/05 02:40:53;;;;;;;7.45;6.68;;;;;;;15.88;85.61;97156.31;4983921;28;20046;-71
2021/09/05 02:43:20;;;;;;;8.88;7.07;;;;;;;15.91;84.56;97155.50;4983692;28;20054;-72
2021/09/05 02:45:47;;;;;;;6.97;6.25;;;;;;;15.82;84.90;97157.88;4983992;28;20057;-71
2021/09/05 02:48:13;;;;;;;8.35;6.82;;;;;;;15.88;85.08;97161.91;4983660;28;20054;-72
2021/09/05 02:50:40;;;;;;;11.90;6.70;;;;;;;15.79;85.69;97150.31;4983164;28;20440;-61
2021/09/05 02:53:07;;;;;;;16.08;9.38;;;;;;;15.48;86.03;97109.28;4984161;28;20054;-71
2021/09/05 02:55:34;;;;;;;8.35;7.07;;;;;;;15.67;86.25;97161.91;4983760;28;20054;-59
2021/09/05 02:58:00;;;;;;;9.23;7.38;;;;;;;15.23;86.68;97114.06;4983887;28;20058;-59
2021/09/05 03:00:27;;;;;;;8.50;6.65;;;;;;;15.47;86.12;97152.38;4981917;28;20513;-60
2021/09/05 03:02:54;;;;;;;10.48;6.80;;;;;;;15.51;86.17;97164.31;4983645;28;20062;-60
2021/09/05 03:05:21;;;;;;;10.55;6.95;;;;;;;15.38;87.30;97171.50;4983115;28;20638;-59
2021/09/05 03:07:48;;;;;;;9.60;6.68;;;;;;;15.39;87.82;97170.31;4983509;28;20094;-71
2021/09/05 03:10:14;;;;;;;6.82;6.18;;;;;;;15.43;87.60;97168.31;4986351;28;20081;-71
2021/09/05 03:12:41;;;;;;;8.27;6.25;;;;;;;15.43;87.17;97162.72;4987893;28;20073;-72
2021/09/05 03:15:08;;;;;;;11.63;5.85;;;;;;;15.38;87.05;97154.75;4986790;28;20056;-71
2021/09/05 03:17:36;;;;;;;12.15;7.72;;;;;;;14.83;87.50;97083.72;4985385;28;20077;-60
2021/09/05 03:20:03;;;;;;;15.30;10.02;;;;;;;15.36;87.54;97167.47;4986756;28;20057;-71
2021/09/05 03:22:29;;;;;;;9.75;6.43;;;;;;;15.27;87.42;97170.66;4986525;28;20054;-72
2021/09/05 03:24:56;;;;;;;10.20;7.45;;;;;;;15.24;88.32;97176.25;4986584;28;20062;-60
2021/09/05 03:27:23;;;;;;;9.30;7.43;;;;;;;15.32;88.51;97173.06;4985601;28;20062;-71
2021/09/05 03:29:50;;;;;;;9.15;6.85;;;;;;;15.31;88.12;97177.06;4985596;28;20065;-59
2021/09/05 03:32:16;;;;;;;11.45;7.63;;;;;;;15.38;86.86;97177.06;4987109;28;20054;-72
2021/09/05 03:34:43;;;;;;;7.38;6.20;;;;;;;15.30;86.28;97189.41;4986431;28;20061;-59
2021/09/05 03:37:10;;;;;;;9.48;7.05;;;;;;;15.24;85.95;97185.41;4986782;28;20154;-61
2021/09/05 03:39:36;;;;;;;7.75;5.90;;;;;;;15.33;85.83;97187.81;4986648;28;20062;-72
2021/09/05 03:42:04;;;;;;;6.47;5.75;;;;;;;15.34;85.92;97187.41;4984902;28;20662;-72
2021/09/05 03:44:31;;;;;;;10.90;6.20;;;;;;;15.35;86.05;97189.00;4986638;28;20060;-60
2021/09/05 03:46:58;;;;;;;8.43;6.03;;;;;;;15.24;85.46;97171.44;4986717;28;20429;-59
2021/09/05 03:49:25;;;;;;;9.23;5.93;;;;;;;14.84;86.66;97157.84;4987000;28;20050;-69
2021/09/05 03:51:52;;;;;;;7.35;6.22;;;;;;;15.29;85.81;97192.59;4986047;28;20050;-59
2021/09/05 03:54:18;;;;;;;10.48;6.07;;;;;;;15.03;86.60;97179.81;4985922;28;20169;-69
2021/09/05 03:56:45;;;;;;;8.95;5.80;;;;;;;15.14;86.56;97191.78;4986371;28;20050;-59
2021/09/05 03:59:12;;;;;;;7.60;5.35;;;;;;;15.17;86.39;97199.38;4985739;28;20081;-68
2021/09/05 04:01:39;;;;;;;10.40;5.63;;;;;;;15.22;86.79;97196.19;4985702;28;20062;-59
2021/09/05 04:04:07;;;;;;;6.32;5.00;;;;;;;15.21;86.55;97189.00;4986017;28;20460;-69
2021/09/05 04:06:33;;;;;;;7.25;5.32;;;;;;;15.17;86.15;97204.94;4986500;28;20440;-59
2021/09/05 04:09:10;;;;;;;8.25;6.47;;;;;;;15.14;86.67;97200.94;4986333;28;20046;-68
2021/09/05 04:11:37;;;;;;;8.25;6.25;;;;;;;15.01;86.99;97179.41;4984645;28;20050;-68
2021/09/05 04:14:04;;;;;;;11.43;6.55;;;;;;;14.69;86.86;97150.63;4986013;28;20050;-59
2021/09/05 04:16:30;;;;;;;8.20;5.65;;;;;;;15.00;87.50;97205.72;4985637;28;20069;-69
2021/09/05 04:18:58;;;;;;;8.70;5.05;;;;;;;15.00;87.06;97211.28;4984486;28;20135;-60
2021/09/05 04:21:25;;;;;;;8.52;6.03;;;;;;;15.08;86.63;97213.69;4984421;28;20070;-59
2021/09/05 04:23:51;;;;;;;8.45;6.13;;;;;;;15.08;87.06;97218.47;4985640;28;20061;-59
2021/09/05 04:26:18;;;;;;;8.73;5.63;;;;;;;15.11;86.15;97212.13;4984724;28;20065;-59
2021/09/05 04:28:45;;;;;;;7.35;6.05;;;;;;;15.12;86.09;97208.13;4985816;28;20054;-68
2021/09/05 04:31:11;;;;;;;14.23;5.80;;;;;;;15.18;86.03;97212.13;4984155;28;20070;-69
2021/09/05 04:33:38;;;;;;;7.65;6.13;;;;;;;15.25;85.18;97212.13;4985823;28;20058;-58
2021/09/05 04:36:05;;;;;;;11.82;5.82;;;;;;;14.95;84.54;97169.84;4985411;28;20054;-60
2021/09/05 04:38:31;;;;;;;6.95;5.50;;;;;;;15.17;84.73;97216.09;4985768;28;20072;-58
2021/09/05 04:40:58;;;;;;;7.57;5.55;;;;;;;14.73;84.41;97212.81;4984057;28;20572;-61
2021/09/05 04:43:25;;;;;;;8.57;5.45;;;;;;;15.15;84.51;97212.91;4985777;28;20054;-58
2021/09/05 04:45:51;;;;;;;8.60;5.50;;;;;;;15.20;84.55;97206.94;4984178;28;20046;-59
2021/09/05 04:48:18;;;;;;;6.95;5.55;;;;;;;15.22;84.92;97221.31;4985535;28;20054;-69
2021/09/05 04:50:46;;;;;;;9.38;5.88;;;;;;;15.20;84.85;97220.91;4985439;28;20058;-68
2021/09/05 04:53:13;;;;;;;14.93;6.30;;;;;;;14.95;84.21;97187.34;4985457;28;20050;-69
2021/09/05 04:55:40;;;;;;;7.07;5.45;;;;;;;15.38;84.36;97232.09;4984818;28;20493;-69
2021/09/05 04:58:06;;;;;;;6.28;5.35;;;;;;;15.18;84.18;97212.91;4985249;28;20434;-69
2021/09/05 05:00:33;;;;;;;8.13;5.47;;;;;;;15.29;85.06;97224.09;4985154;28;20433;-69
2021/09/05 05:03:00;;;;;;;6.97;5.70;;;;;;;15.19;85.75;97203.34;4985569;28;20066;-61
2021/09/05 05:05:27;;;;;;;10.27;6.00;;;;;;;14.92;83.90;97131.56;4985193;28;20547;-70
2021/09/05 05:07:54;;;;;;;9.27;6.10;;;;;;;15.27;84.46;97189.41;4984984;28;20058;-59
2021/09/05 05:10:22;;;;;;;9.88;6.63;;;;;;;15.80;83.80;97232.94;4984937;28;20053;-59
2021/09/05 05:12:49;;;;;;;7.95;6.70;;;;;;;15.99;83.50;97228.94;4983551;28;20058;-58
2021/09/05 05:15:15;;;;;;;10.07;7.28;;;;;;;16.13;82.72;97235.31;4984586;28;20054;-60
2021/09/05 05:17:42;;;;;;;11.20;7.50;;;;;;;16.33;82.04;97222.47;4983647;28;20120;-58
2021/09/05 05:20:11;;;;;;;10.52;8.38;;;;;;;16.40;81.45;97225.25;4985095;28;20058;-69
2021/09/05 05:22:39;;;;;;;11.77;7.80;;;;;;;16.46;81.18;97204.09;4985108;28;20089;-58
2021/09/05 05:25:06;;;;;;;11.43;8.43;;;;;;;16.60;80.88;97232.00;4984484;28;20278;-59
2021/09/05 05:27:34;;;;;;;12.25;9.70;;;;;;;16.80;79.90;97234.34;4984399;28;20046;-61
2021/09/05 05:30:00;;;;;;;10.15;6.90;;;;;;;17.01;79.02;97240.63;4984491;28;20062;-59
2021/09/05 05:32:27;;;;;;;9.80;7.55;;;;;;;17.04;78.04;97213.84;4983152;28;20148;-59
2021/09/05 05:34:54;;;;;;;12.40;7.78;;;;;;;17.18;77.82;97233.34;4984113;28;20054;-69
2021/09/05 05:37:21;;;;;;;11.23;7.75;;;;;;;17.47;76.55;97234.78;4983179;28;20056;-70
2021/09/05 05:39:48;;;;;;;9.50;7.53;;;;;;;17.68;75.39;97229.81;4984539;28;20058;-59
2021/09/05 05:42:14;;;;;;;9.93;7.35;;;;;;;17.53;74.96;97188.34;4984496;28;20081;-58
2021/09/05 05:44:41;;;;;;;8.27;7.10;;;;;;;17.97;73.86;97227.59;4984549;28;20054;-59
2021/09/05 05:47:09;;;;;;;11.88;7.35;;;;;;;18.04;73.42;97235.91;4983395;28;20176;-58
2021/09/05 05:49:38;;;;;;;9.20;6.93;;;;;;;17.78;72.74;97177.72;4984115;28;20513;-58
2021/09/05 05:52:05;;;;;;;12.45;7.32;;;;;;;18.26;72.62;97231.69;4983147;28;20057;-59
2021/09/05 05:54:32;;;;;;;10.15;7.45;;;;;;;18.41;72.21;97241.59;4984742;28;20050;-70
2021/09/05 05:56:59;;;;;;;10.40;6.88;;;;;;;18.33;71.16;97192.38;4984138;28;20058;-68
2021/09/05 05:59:25;;;;;;;9.18;6.97;;;;;;;18.45;71.42;97205.88;4984177;28;20576;-59
2021/09/05 06:01:52;;;;;;;10.15;7.63;;;;;;;18.82;70.94;97219.88;4983826;28;20066;-69
2021/09/05 06:04:19;;;;;;;11.30;7.35;;;;;;;18.99;68.94;97223.66;4983634;28;20082;-59
2021/09/05 06:06:46;;;;;;;9.85;8.02;;;;;;;19.13;68.41;97224.28;4983914;28;20065;-70
2021/09/05 06:09:15;;;;;;;12.68;7.95;;;;;;;19.32;67.45;97232.06;4984207;28;20505;-69
2021/09/05 06:11:41;;;;;;;11.73;6.88;;;;;;;19.55;67.46;97234.94;4983871;28;20174;-59
2021/09/05 06:14:08;;;;;;;9.13;7.40;;;;;;;19.65;67.12;97226.78;4983729;28;20619;-59
2021/09/05 06:16:35;;;;;;;12.50;8.25;;;;;;;19.75;66.34;97229.41;4984187;28;20068;-70
2021/09/05 06:19:02;;;;;;;12.60;8.35;;;;;;;17.89;64.39;96892.53;4983377;28;20054;-67
2021/09/05 06:21:29;;;;;;;10.00;8.43;;;;;;;19.89;64.48;97194.63;4983844;28;20157;-57
2021/09/05 06:23:56;;;;;;;8.63;7.53;;;;;;;19.85;63.99;97175.03;4983796;28;20050;-68
2021/09/05 06:26:22;;;;;;;11.60;7.47;;;;;;;20.11;63.50;97170.53;4983892;28;20058;-67
2021/09/05 06:28:49;;;;;;;9.18;7.55;;;;;;;20.71;61.83;97224.47;4983446;28;20441;-57
2021/09/05 06:31:16;;;;;;;8.43;5.68;;;;;;;20.70;59.41;97230.53;4983571;28;20073;-60
2021/09/05 06:33:43;;;;;;;10.80;6.00;;;;;;;20.21;59.53;97150.69;4984228;28;20413;-58
2021/09/05 06:36:09;;;;;;;10.25;7.80;;;;;;;20.52;58.33;97187.88;4983517;28;20332;-57
2021/09/05 06:38:36;;;;;;;10.02;8.60;;;;;;;20.83;59.00;97229.47;4983799;28;20105;-69
2021/09/05 06:41:03;;;;;;;10.25;7.28;;;;;;;20.89;58.88;97226.94;4983661;28;20046;-60
2021/09/05 06:43:29;;;;;;;9.73;8.02;;;;;;;20.85;57.96;97231.84;4982895;28;20050;-69
2021/09/05 06:45:56;;;;;;;8.40;6.97;;;;;;;20.87;58.60;97235.03;4987581;28;20050;-60
2021/09/05 06:48:39;;;;;;;8.07;6.20;;;;;;;21.06;58.27;97234.25;4986267;28;20141;-60
2021/09/05 06:51:05;;;;;;;7.35;6.07;;;;;;;21.07;56.81;97233.00;4985873;28;20046;-68
2021/09/05 06:53:32;;;;;;;6.90;6.20;;;;;;;21.12;56.82;97235.31;4987543;28;20096;-59
2021/09/05 06:55:59;;;;;;;6.80;6.13;;;;;;;21.05;55.80;97241.13;4985898;28;20493;-59
2021/09/05 06:58:26;;;;;;;7.90;6.13;;;;;;;20.91;56.56;97247.03;4987643;28;20050;-70
2021/09/05 07:00:53;;;;;;;10.55;7.22;;;;;;;20.66;56.90;97202.47;4987133;28;20057;-58
2021/09/05 07:03:19;;;;;;;10.10;6.63;;;;;;;21.21;55.66;97249.66;4986986;28;20054;-58
2021/09/05 07:05:47;;;;;;;9.60;5.60;;;;;;;21.27;54.58;97247.91;4985540;28;20457;-67
2021/09/05 07:08:14;;;;;;;8.57;5.63;;;;;;;21.35;54.71;97249.34;4987094;28;20055;-70
2021/09/05 07:10:40;;;;;;;6.80;5.97;;;;;;;21.31;53.59;97253.47;4985778;28;20055;-59
2021/09/05 07:13:07;;;;;;;5.90;5.30;;;;;;;21.77;52.18;97248.38;4987261;28;20069;-58
2021/09/05 07:15:37;;;;;;;12.93;8.57;;;;;;;21.78;49.09;97216.13;4986973;28;20513;-70
2021/09/05 07:18:04;;;;;;;8.95;6.03;;;;;;;21.80;48.82;97195.94;4987253;28;20061;-59
2021/09/05 07:20:31;;;;;;;7.88;6.32;;;;;;;21.98;50.25;97218.88;4987015;28;20067;-70
2021/09/05 07:22:58;;;;;;;8.07;6.75;;;;;;;21.92;50.98;97255.28;4985487;28;20062;-71
2021/09/05 07:25:26;;;;;;;8.82;6.85;;;;;;;22.08;51.65;97252.44;4987079;28;20054;-69
2021/09/05 07:27:54;;;;;;;7.43;6.68;;;;;;;22.14;51.36;97256.34;4985593;28;20058;-70
2021/09/05 07:30:21;;;;;;;6.80;6.20;;;;;;;21.84;50.71;97253.88;4986896;28;20649;-60
2021/09/05 07:32:47;;;;;;;7.25;6.50;;;;;;;22.28;49.94;97261.63;4985086;28;20077;-59
2021/09/05 07:35:14;;;;;;;7.90;6.82;;;;;;;22.54;49.89;97261.81;4985979;28;20050;-59
2021/09/05 07:37:46;;;;;;;6.78;6.18;;;;;;;22.52;49.79;97264.28;4986019;28;20062;-70
2021/09/05 07:40:15;;;;;;;8.93;6.72;;;;;;;22.88;49.83;97259.25;4986436;28;20432;-58
2021/09/05 07:42:42;;;;;;;9.95;6.63;;;;;;;22.68;50.38;97261.44;4986375;28;20055;-70
2021/09/05 07:45:10;;;;;;;8.60;6.72;;;;;;;23.10;48.30;97266.69;4986284;28;20054;-72
2021/09/05 07:47:37;;;;;;;9.35;6.38;;;;;;;23.22;48.73;97267.97;4986588;28;20058;-58
2021/09/05 07:50:06;;;;;;;8.73;7.70;;;;;;;23.19;48.67;97234.94;4986044;28;20137;-59
2021/09/05 07:52:33;;;;;;;8.60;6.65;;;;;;;22.91;48.94;97272.47;4986115;28;20050;-58
2021/09/05 07:55:00;;;;;;;7.50;6.88;;;;;;;23.69;46.96;97266.16;4984131;28;20392;-59
2021/09/05 07:57:27;;;;;;;7.22;6.57;;;;;;;23.79;46.65;97197.09;4986065;28;20058;-71
2021/09/05 07:59:54;;;;;;;8.57;7.63;;;;;;;24.89;45.17;97258.09;4986030;28;20054;-59
2021/09/05 08:02:20;;;;;;;8.20;6.70;;;;;;;25.01;43.69;97240.22;4985675;28;20178;-59
2021/09/05 08:04:47;;;;;;;9.15;6.85;;;;;;;25.36;43.35;97255.16;4985742;28;20509;-71
2021/09/05 08:07:14;;;;;;;14.68;9.07;;;;;;;25.61;42.33;97259.91;4986317;28;20543;-73
2021/09/05 08:09:41;;;;;;;11.82;6.95;;;;;;;25.01;43.70;97228.91;4985872;28;20054;-59
2021/09/05 08:12:08;;;;;;;39.55;26.52;;;;;;;24.88;41.63;97250.84;4984528;28;20497;-72
2021/09/05 08:14:35;;;;;;;31.25;24.80;;;;;;;24.19;43.38;97252.00;4985938;28;20056;-72
2021/09/05 08:17:02;;;;;;;9.43;8.38;;;;;;;24.55;42.58;97212.72;4985686;28;20050;-72
2021/09/05 08:19:29;;;;;;;8.68;7.07;;;;;;;25.37;40.72;97233.28;4985486;28;20750;-73
2021/09/05 08:21:56;;;;;;;9.70;8.00;;;;;;;24.36;42.47;97244.97;4985967;28;20571;-59
2021/09/05 08:24:22;;;;;;;9.35;7.53;;;;;;;25.34;41.62;97251.22;4984451;28;20468;-73
2021/09/05 08:26:49;;;;;;;8.90;7.70;;;;;;;25.72;39.10;97237.56;4986199;28;20060;-73
2021/09/05 08:29:16;;;;;;;8.18;7.47;;;;;;;25.80;39.14;97244.53;4984113;28;20054;-59
2021/09/05 08:31:42;;;;;;;8.48;7.18;;;;;;;25.73;38.26;97222.09;4985301;28;20066;-72
2021/09/05 08:34:09;;;;;;;8.30;6.82;;;;;;;25.67;38.82;97218.31;4984282;28;20081;-69
2021/09/05 08:36:36;;;;;;;7.95;7.05;;;;;;;25.64;39.43;97236.25;4985380;28;20056;-72
2021/09/05 08:39:03;;;;;;;9.98;9.07;;;;;;;25.55;39.28;97244.72;4985317;28;20058;-72
2021/09/05 08:41:29;;;;;;;8.90;7.88;;;;;;;25.44;37.66;97228.09;4985412;28;20050;-70
2021/09/05 08:43:57;;;;;;;9.77;8.77;;;;;;;25.12;38.02;97178.25;4985708;28;20065;-58
2021/09/05 08:46:25;;;;;;;10.45;9.32;;;;;;;25.45;37.93;97177.84;4985711;28;20054;-59
2021/09/05 08:48:54;;;;;;;8.45;7.65;;;;;;;26.03;37.22;97230.63;4984983;28;20207;-72
2021/09/05 08:51:21;;;;;;;8.35;7.57;;;;;;;25.80;36.76;97231.13;4985237;28;20053;-72
2021/09/05 08:53:48;;;;;;;8.40;7.60;;;;;;;24.59;38.59;97195.59;4984884;28;20429;-74
2021/09/05 08:56:14;;;;;;;10.77;9.68;;;;;;;25.52;37.62;97205.91;4984806;28;20085;-59
2021/09/05 08:58:41;;;;;;;8.50;6.95;;;;;;;25.99;36.48;97195.88;4983151;28;20058;-70
2021/09/05 09:01:26;;;;;;;7.60;6.97;;;;;;;26.34;36.13;97225.66;4985167;28;20064;-60
2021/09/05 09:04:13;;;;;;;14.65;11.05;;;;;;;26.22;37.29;97228.63;4983580;28;20069;-71
2021/09/05 09:06:41;;;;;;;7.75;7.15;;;;;;;25.51;37.31;97187.31;4982562;28;20057;-58
2021/09/05 09:09:09;;;;;;;9.05;7.25;;;;;;;25.20;38.90;97202.25;4984751;28;20344;-70
2021/09/05 09:11:49;;;;;;;7.70;6.95;;;;;;;24.44;40.03;97240.63;4984734;28;20160;-58
2021/09/05 09:14:16;;;;;;;7.85;7.05;;;;;;;24.44;39.69;97223.63;4983312;28;20050;-59
2021/09/05 09:16:43;;;;;;;7.00;6.40;;;;;;;23.84;42.23;97233.31;4985027;28;20066;-58
2021/09/05 09:19:29;;;;;;;11.82;8.18;;;;;;;24.57;42.33;97238.56;4984616;28;20058;-59
2021/09/05 09:21:56;;;;;;;9.07;8.10;;;;;;;24.90;41.11;97225.66;4984473;28;20054;-72
2021/09/05 09:24:24;;;;;;;7.38;6.88;;;;;;;25.12;39.49;97172.56;4982915;28;20062;-70
2021/09/05 09:27:03;;;;;;;7.90;7.10;;;;;;;25.61;38.57;97231.53;4984212;28;20441;-70
2021/09/05 09:29:32;;;;;;;7.72;6.95;;;;;;;25.63;38.04;97223.31;4984010;28;20137;-70
2021/09/05 09:32:06;;;;;;;8.70;7.80;;;;;;;25.55;39.40;97224.84;4984164;28;20090;-59
2021/09/05 09:34:43;;;;;;;11.10;8.05;;;;;;;25.81;38.88;97223.41;4982834;28;20061;-71
2021/09/05 09:37:15;;;;;;;7.63;6.90;;;;;;;24.87;39.86;97223.75;4983975;28;20059;-59
2021/09/05 09:39:59;;;;;;;7.30;6.68;;;;;;;24.31;40.21;97231.38;4983799;28;20066;-58
2021/09/05 09:42:33;;;;;;;8.25;6.90;;;;;;;24.41;40.66;97224.56;4984212;28;20133;-70
2021/09/05 09:45:02;;;;;;;8.95;8.02;;;;;;;24.70;40.78;97184.72;4981820;28;20085;-60
2021/09/05 09:47:50;;;;;;;8.70;7.80;;;;;;;24.96;39.15;97215.31;4982807;28;20050;-59
2021/09/05 09:50:21;;;;;;;17.17;10.50;;;;;;;25.30;38.91;97223.75;4983654;28;20050;-58
2021/09/05 09:52:49;;;;;;;10.23;8.55;;;;;;;25.53;37.57;97216.78;4983649;28;20405;-59
2021/09/05 09:55:16;;;;;;;7.93;7.13;;;;;;;25.34;37.38;97200.16;4983585;28;20533;-58
2021/09/05 09:57:43;;;;;;;7.53;6.80;;;;;;;24.41;39.30;97224.56;4983284;28;20058;-69
2021/09/05 10:00:10;;;;;;;6.88;6.28;;;;;;;24.18;38.54;97219.31;4982333;28;20054;-71
2021/09/05 10:02:42;;;;;;;7.38;6.78;;;;;;;24.38;38.62;97173.69;4983281;28;20062;-71
2021/09/05 10:05:13;;;;;;;8.52;6.22;;;;;;;25.19;37.31;97217.69;4982514;28;20065;-59
2021/09/05 10:07:42;;;;;;;7.30;6.60;;;;;;;25.24;37.22;97148.22;4982569;28;20142;-70
2021/09/05 10:10:12;;;;;;;8.85;8.07;;;;;;;26.14;35.84;97218.81;4984319;28;20551;-71
2021/09/05 10:12:40;;;;;;;8.50;6.78;;;;;;;26.70;35.04;97219.25;4984286;28;20429;-58
2021/09/05 10:15:08;;;;;;;7.32;6.63;;;;;;;27.02;33.56;97227.16;4982539;28;20077;-71
2021/09/05 10:17:37;;;;;;;8.23;7.57;;;;;;;27.03;33.55;97176.78;4984400;28;20081;-69
2021/09/05 10:20:05;;;;;;;8.88;8.07;;;;;;;27.60;32.62;97216.34;4987625;28;20517;-69
2021/09/05 10:22:32;;;;;;;8.93;6.93;;;;;;;27.79;32.72;97203.63;4988013;28;20054;-59
2021/09/05 10:25:01;;;;;;;8.05;7.20;;;;;;;27.79;32.55;97135.28;4988029;28;20064;-57
2021/09/05 10:27:33;;;;;;;9.02;8.23;;;;;;;28.31;32.30;97225.09;4987924;28;20058;-57
2021/09/05 10:30:06;;;;;;;9.02;8.13;;;;;;;27.39;32.56;97217.34;4987409;28;20061;-58
2021/09/05 10:32:48;;;;;;;10.03;7.53;;;;;;;27.45;32.62;97221.13;4987621;28;20058;-58
2021/09/05 10:35:24;;;;;;;10.15;8.43;;;;;;;27.69;31.50;97212.69;4987938;28;20054;-67
2021/09/05 10:38:26;;;;;;;8.13;7.32;;;;;;;28.15;31.60;97212.03;4985893;28;20050;-70
2021/09/05 10:40:59;;;;;;;9.10;8.32;;;;;;;28.47;32.21;97216.09;4987607;28;20050;-58
2021/09/05 10:43:48;;;;;;;8.40;7.80;;;;;;;28.40;30.67;97215.69;4987842;28;20093;-69
2021/09/05 10:46:19;;;;;;;9.68;8.50;;;;;;;28.70;31.26;97217.41;4987572;28;20050;-69
2021/09/05 10:48:50;;;;;;;9.60;8.68;;;;;;;28.44;29.96;97199.22;4987635;28;20046;-58
2021/09/05 11:16:23;;;;;;;10.45;6.40;;;;;;;28.25;30.47;97217.69;5015066;28;20397;-60
2021/09/05 11:18:50;;;;;;;9.27;6.75;;;;;;;28.31;29.82;97218.59;5046090;28;20435;-60
2021/09/05 11:21:24;;;;;;;7.80;6.55;;;;;;;28.41;30.31;97209.50;5046608;28;20534;-61
2021/09/05 11:23:52;;;;;;;7.88;7.00;;;;;;;27.98;30.09;97168.13;5045940;28;20132;-59
2021/09/05 11:26:18;;;;;;;6.43;5.82;;;;;;;27.93;30.35;97200.09;5015047;28;20050;-61
2021/09/05 11:28:45;;;;;;;7.85;6.15;;;;;;;28.01;30.92;97211.97;5013670;28;20049;-60
2021/09/05 11:31:12;;;;;;;8.32;6.70;;;;;;;28.15;29.51;97203.47;5013608;28;20460;-66
2021/09/05 11:33:39;;;;;;;10.32;7.30;;;;;;;28.57;30.08;97203.41;5014150;28;20355;-59
2021/09/05 11:36:09;;;;;;;7.40;6.25;;;;;;;28.69;28.92;97204.44;5015330;28;20054;-60
2021/09/05 11:38:36;;;;;;;10.00;6.38;;;;;;;28.39;29.08;97157.13;5015048;28;20060;-59
2021/09/05 11:41:04;;;;;;;7.10;6.40;;;;;;;28.47;29.27;97135.53;5014432;28;20439;-61
2021/09/05 11:43:38;;;;;;;8.57;7.40;;;;;;;28.99;28.94;97203.25;5014752;28;20054;-59
2021/09/05 11:46:13;;;;;;;7.18;6.32;;;;;;;28.34;29.02;97132.13;5013413;28;20543;-61
2021/09/05 11:48:51;;;;;;;10.55;6.70;;;;;;;28.77;29.60;97205.66;5015327;28;20065;-60
2021/09/05 11:51:18;;;;;;;8.95;6.40;;;;;;;28.94;29.04;97195.34;5015069;28;20054;-60
2021/09/05 11:54:05;;;;;;;7.05;5.85;;;;;;;28.88;29.13;97195.22;5013981;28;20816;-61
2021/09/05 11:56:33;;;;;;;9.27;6.68;;;;;;;28.13;31.09;97169.00;5013731;28;20583;-60
2021/09/05 11:59:07;;;;;;;8.57;6.80;;;;;;;28.18;31.02;97202.50;5015331;28;20557;-59
2021/09/05 12:01:34;;;;;;;7.00;5.93;;;;;;;27.85;29.98;97141.88;5014895;28;20053;-60